Buoy 47574

sailwx.info

Track history (hours):
 
Tides and Currents Weather Stations Pressure Air Temp Water Temp Dewpoint Dewpoint Depression Visibility Wind Speed Wind Dir Waves Ship Positions

Drifting buoy 47574

Last reported at 2018-Feb-20 14:04 UTC. Time now 2018-Feb-21 09:42 UTC.
Position N 36°07' W 017°15'.

Barometer 1023.1 mb
Water temperature 16.0 ° C

Date/timePositionNaut miles runAvg speedWind from/ knotsBaromVisibWave heightAir tempDewpointWater temp
2018-Feb-20 14:04N 36°07' W 017°15'0 0.0 1023.1 16.0
2018-Feb-20 14:00N 36°07' W 017°15'0 0.6 1023.1 16.0
2018-Feb-20 13:08N 36°07' W 017°14'0 0.0 1023.8 16.0
2018-Feb-20 13:00N 36°07' W 017°14'0 0.0 1023.8 16.0
2018-Feb-20 12:05N 36°07' W 017°14'0 0.0 1024.0 16.0
2018-Feb-20 12:00N 36°07' W 017°14'0 0.5 1024.0 16.0
2018-Feb-20 11:00N 36°07' W 017°14'0 0.5 1024.2 16.0
2018-Feb-20 10:04N 36°07' W 017°13'0 0.0 1024.2 16.0
2018-Feb-20 10:00N 36°07' W 017°13'0 0.0 1024.2 16.0
2018-Feb-20 09:05N 36°07' W 017°13'0 0.0 1024.4 16.0
2018-Feb-20 09:00N 36°07' W 017°13'0 0.5 1024.4 16.0
2018-Feb-20 08:05N 36°07' W 017°13'0 0.0 1023.8 16.0
2018-Feb-20 07:05N 36°07' W 017°13'0 5.8 1023.6 16.0
2018-Feb-20 07:00N 36°07' W 017°12'0 0.0 1023.6 16.0
2018-Feb-20 06:05N 36°07' W 017°12'0 0.0 1023.5 16.0
2018-Feb-20 06:00N 36°07' W 017°12'0 0.0 1023.5 16.0
2018-Feb-20 05:04N 36°07' W 017°12'0 0.0 1023.4 16.0
2018-Feb-20 05:00N 36°07' W 017°12'0 0.5 1023.4 16.0
2018-Feb-20 04:02N 36°07' W 017°11'0 0.0 1023.6 16.0
2018-Feb-20 04:00N 36°07' W 017°11'0 0.0 1023.6 16.0
2018-Feb-20 03:04N 36°07' W 017°11'0 0.0 1023.9 16.0
2018-Feb-20 03:00N 36°07' W 017°11'0 0.5 1023.9 16.0
2018-Feb-20 02:05N 36°07' W 017°11'0 0.0 1024.1 16.0
2018-Feb-20 02:00N 36°07' W 017°11'0 0.0 1024.1 16.0
2018-Feb-20 01:04N 36°07' W 017°11'0 0.0 1024.3 16.0
2018-Feb-20 01:00N 36°07' W 017°11'1 0.8 1024.3 16.0
2018-Feb-20 00:05N 36°07' W 017°10'0 0.0 1024.4 16.0
2018-Feb-20 00:00N 36°07' W 017°10'0 0.0 1024.4 16.0
2018-Feb-19 23:05N 36°07' W 017°10'0 0.0 1024.5 16.0
2018-Feb-19 23:00N 36°07' W 017°10'0 0.5 1024.5 16.0
2018-Feb-19 22:04N 36°07' W 017°10'0 0.0 1024.5 15.9
2018-Feb-19 22:00N 36°07' W 017°10'1 0.8 1024.5 16.0
2018-Feb-19 21:04N 36°08' W 017°09'0 0.0 1024.4 16.0
2018-Feb-19 21:00N 36°08' W 017°09'0 0.0 1024.4 16.0
2018-Feb-19 20:04N 36°08' W 017°09'0 0.0 1024.2 16.0
2018-Feb-19 20:00N 36°08' W 017°09'0 0.5 1024.2 16.0
2018-Feb-19 19:05N 36°08' W 017°08'0 0.0 1023.9 16.0
2018-Feb-19 19:00N 36°08' W 017°08'1 0.7 1023.9 16.0
2018-Feb-19 18:05N 36°08' W 017°08'0 0.0 1023.7 16.1
2018-Feb-19 18:00N 36°08' W 017°08'0 0.0 1023.7 16.1
2018-Feb-19 17:05N 36°08' W 017°08'0 0.0 1023.4 16.1
2018-Feb-19 17:00N 36°08' W 017°08'0 0.5 1023.4 16.1
2018-Feb-19 16:04N 36°08' W 017°08'0 0.0 1023.2 16.1
2018-Feb-19 16:00N 36°08' W 017°08'0 0.0 1023.2 16.1
2018-Feb-19 15:05N 36°08' W 017°08'0 0.0 1023.5 16.0
2018-Feb-19 15:00N 36°08' W 017°08'0 0.0 1023.5 16.0
2018-Feb-19 14:04N 36°08' W 017°08'0 0.0 1023.8 16.0
2018-Feb-19 14:00N 36°08' W 017°08'0 0.5 1023.8 16.0
2018-Feb-19 13:05N 36°08' W 017°07'0 0.0 1024.6 16.0
2018-Feb-19 13:00N 36°08' W 017°07'0 0.0 1024.6 16.0
2018-Feb-19 12:05N 36°08' W 017°07'0 0.0 1024.7 16.0
2018-Feb-19 12:00N 36°08' W 017°07'0 0.5 1024.7 16.0
2018-Feb-19 11:05N 36°08' W 017°07'0 0.0 1024.8 16.0
2018-Feb-19 11:00N 36°08' W 017°07'0 0.5 1024.8 16.0
2018-Feb-19 10:05N 36°08' W 017°06'0 0.0 1024.4 16.0
2018-Feb-19 10:00N 36°08' W 017°06'0 0.5 1024.4 16.0
2018-Feb-19 09:07N 36°08' W 017°05'0 0.0 1024.1 16.0
2018-Feb-19 09:00N 36°08' W 017°05'0 0.5 1024.1 16.0
2018-Feb-19 08:01N 36°08' W 017°05'0 0.0 1023.6 16.0
2018-Feb-19 08:00N 36°08' W 017°05'0 0.5 1023.6 16.0
2018-Feb-19 07:05N 36°08' W 017°04'0 0.0 1023.5 16.0
2018-Feb-19 07:00N 36°08' W 017°04'1 0.6 1023.5 16.0
2018-Feb-19 06:04N 36°09' W 017°04'0 0.0 1023.4 16.0
2018-Feb-19 06:00N 36°09' W 017°04'0 0.5 1023.4 16.0
2018-Feb-19 05:04N 36°09' W 017°04'0 0.0 1023.3 16.0
2018-Feb-19 05:00N 36°09' W 017°04'1 0.8 1023.3 16.0
2018-Feb-19 04:00N 36°10' W 017°03'0 0.0 1023.3 16.0
2018-Feb-19 03:08N 36°10' W 017°03'0 0.0 1023.4 16.0
2018-Feb-19 03:00N 36°10' W 017°03'1 0.7 1023.4 16.0
2018-Feb-19 02:05N 36°10' W 017°03'0 0.0 1023.5 16.0
2018-Feb-19 02:00N 36°10' W 017°03'0 0.0 1023.5 16.0
2018-Feb-19 01:05N 36°10' W 017°03'0 0.0 1023.6 16.0
2018-Feb-19 01:00N 36°10' W 017°03'0 0.0 1023.6 16.0
2018-Feb-19 00:04N 36°10' W 017°03'0 0.0 1023.9 16.0
2018-Feb-19 00:00N 36°10' W 017°03'1 0.9 1023.9 16.0
2018-Feb-18 23:07N 36°11' W 017°02'0 0.0 1024.4 16.0
2018-Feb-18 23:00N 36°11' W 017°02'0 0.5 1024.4 16.0
2018-Feb-18 22:05N 36°11' W 017°02'0 5.8 1024.7 16.0
2018-Feb-18 22:00N 36°11' W 017°02'0 0.5 1024.7 16.0
2018-Feb-18 21:04N 36°11' W 017°02'0 0.5 1024.7 16.0
2018-Feb-18 20:05N 36°11' W 017°01'0 0.0 1024.7 16.0
2018-Feb-18 20:00N 36°11' W 017°01'0 0.5 1024.7 16.0
2018-Feb-18 19:00N 36°11' W 017°01'1 1.0 1024.4 16.0
2018-Feb-18 18:04N 36°11' W 016°59'0 0.0 1024.4 16.1
2018-Feb-18 18:00N 36°11' W 016°59'0 0.5 1024.4 16.1
2018-Feb-18 17:06N 36°11' W 016°59'0 0.0 1024.5 16.1
2018-Feb-18 17:00N 36°11' W 016°59'0 0.5 1024.5 16.1
2018-Feb-18 16:05N 36°11' W 016°58'0 0.0 1024.6 16.1
2018-Feb-18 16:00N 36°11' W 016°58'0 0.5 1024.6 16.1
2018-Feb-18 15:04N 36°11' W 016°58'0 0.0 1024.9 16.1
2018-Feb-18 15:00N 36°11' W 016°58'0 0.5 1024.9 16.1
2018-Feb-18 14:05N 36°11' W 016°57'0 0.0 1025.3 16.1
2018-Feb-18 14:00N 36°11' W 016°57'0 0.5 1025.3 16.1
2018-Feb-18 13:05N 36°11' W 016°56'0 0.0 1026.0 16.1
2018-Feb-18 13:00N 36°11' W 016°56'0 0.5 1026.0 16.1
2018-Feb-18 12:05N 36°11' W 016°56'0 0.0 1026.3 16.1
2018-Feb-18 12:00N 36°11' W 016°56'0 0.5 1026.3 16.1
2018-Feb-18 11:04N 36°11' W 016°55'0 0.0 1026.3 16.1
2018-Feb-18 11:00N 36°11' W 016°55'0 0.5 1026.3 16.1
2018-Feb-18 10:00N 36°11' W 016°55'1 1.0 1026.4 16.1
2018-Feb-18 09:04N 36°11' W 016°53'0 0.0 1026.5 16.1
2018-Feb-18 09:00N 36°11' W 016°53'0 0.5 1026.5 16.1
2018-Feb-18 08:05N 36°11' W 016°53'0 0.0 1026.1 16.1
2018-Feb-18 08:00N 36°11' W 016°53'1 0.8 1026.1 16.1
2018-Feb-18 07:04N 36°11' W 016°52'0 0.0 1025.8 16.1
2018-Feb-18 07:00N 36°11' W 016°52'0 0.5 1025.8 16.1
2018-Feb-18 06:05N 36°11' W 016°52'0 0.0 1025.8 16.1
2018-Feb-18 06:00N 36°11' W 016°52'1 0.8 1025.8 16.2
2018-Feb-18 05:05N 36°12' W 016°51'0 0.0 1025.9 16.2
2018-Feb-18 05:00N 36°12' W 016°51'1 0.9 1025.9 16.2
2018-Feb-18 04:06N 36°13' W 016°50'0 0.0 1026.1 16.2
2018-Feb-18 04:00N 36°13' W 016°50'0 0.0 1026.1 16.2
2018-Feb-18 03:05N 36°13' W 016°50'0 0.0 1026.8 16.2
2018-Feb-18 03:00N 36°13' W 016°50'1 0.8 1026.8 16.2
2018-Feb-18 02:04N 36°13' W 016°50'0 0.0 1027.1 16.2
2018-Feb-18 02:00N 36°13' W 016°50'0 0.0 1027.1 16.2
2018-Feb-18 01:04N 36°13' W 016°50'0 0.0 1027.6 16.2
2018-Feb-18 01:00N 36°13' W 016°50'0 0.0 1027.6 16.2
2018-Feb-18 00:04N 36°13' W 016°50'0 0.0 1027.8 16.2
2018-Feb-18 00:00N 36°13' W 016°50'1 0.8 1027.8 16.2
2018-Feb-17 23:05N 36°14' W 016°49'0 0.0 1028.1 16.2
2018-Feb-17 23:00N 36°14' W 016°49'0 0.0 1028.1 16.2
2018-Feb-17 22:04N 36°14' W 016°49'0 0.0 1028.1 16.2
2018-Feb-17 22:00N 36°14' W 016°49'0 0.5 1028.1 16.2
2018-Feb-17 21:04N 36°14' W 016°49'0 0.0 1028.1 16.3
2018-Feb-17 21:00N 36°14' W 016°49'1 0.8 1028.1 16.3
2018-Feb-17 20:04N 36°14' W 016°48'0 0.0 1027.7 16.3
2018-Feb-17 20:00N 36°14' W 016°48'0 0.5 1027.7 16.3
2018-Feb-17 19:00N 36°14' W 016°47'0 0.0 1027.3 16.3
2018-Feb-17 18:09N 36°14' W 016°47'0 0.4 1027.2 16.3
2018-Feb-17 17:00N 36°14' W 016°47'1 1.1 1027.1 16.3
2018-Feb-17 16:05N 36°14' W 016°46'0 0.0 1026.9 16.3
2018-Feb-17 16:00N 36°14' W 016°46'0 0.6 1026.9 16.3
2018-Feb-17 15:08N 36°14' W 016°45'0 0.0 1026.9 16.3
2018-Feb-17 15:00N 36°14' W 016°45'0 0.5 1026.9 16.3
2018-Feb-17 14:04N 36°14' W 016°44'0 0.0 1027.3 16.3
2018-Feb-17 14:00N 36°14' W 016°44'1 0.8 1027.3 16.3
2018-Feb-17 13:05N 36°15' W 016°44'0 0.0 1027.7 16.3
2018-Feb-17 13:00N 36°15' W 016°44'0 0.5 1027.7 16.3
2018-Feb-17 12:00N 36°15' W 016°43'1 0.8 1028.0 16.3
2018-Feb-17 11:05N 36°16' W 016°43'0 0.0 1028.0 16.3
2018-Feb-17 11:00N 36°16' W 016°43'1 0.8 1028.0 16.3
2018-Feb-17 10:05N 36°16' W 016°42'0 0.0 1027.7 16.2
2018-Feb-17 10:00N 36°16' W 016°42'1 0.8 1027.7 16.3
2018-Feb-17 09:00N 36°17' W 016°41'1 0.6 1027.2 16.2
2018-Feb-17 08:04N 36°17' W 016°41'0 0.0 1026.5 16.2
2018-Feb-17 08:00N 36°17' W 016°41'0 0.5 1026.5 16.2
2018-Feb-17 07:06N 36°17' W 016°41'0 0.0 1026.2 16.2
2018-Feb-17 07:00N 36°17' W 016°41'1 0.7 1026.2 16.2
2018-Feb-17 06:05N 36°18' W 016°41'0 0.0 1025.8 16.1
2018-Feb-17 06:00N 36°18' W 016°41'0 0.0 1025.8 16.2
2018-Feb-17 05:04N 36°18' W 016°41'0 0.0 1025.7 16.2
2018-Feb-17 05:00N 36°18' W 016°41'1 0.8 1025.7 16.2
2018-Feb-17 04:00N 36°19' W 016°40'0 0.0 1025.8 16.2
2018-Feb-17 03:04N 36°19' W 016°40'0 0.0 1025.7 16.2
2018-Feb-17 03:00N 36°19' W 016°40'0 0.5 1025.7 16.2
2018-Feb-17 02:04N 36°19' W 016°40'0 0.0 1025.6 16.2
2018-Feb-17 02:00N 36°19' W 016°40'0 0.0 1025.6 16.2
2018-Feb-17 01:04N 36°19' W 016°40'0 0.0 1025.5 16.3
2018-Feb-17 01:00N 36°19' W 016°40'0 0.5 1025.5 16.3
2018-Feb-17 00:06N 36°19' W 016°39'1 6.0 1025.1 16.3
2018-Feb-17 00:00N 36°19' W 016°39'1 0.7 1025.1 16.3
2018-Feb-16 23:05N 36°19' W 016°39'0 0.0 1025.0 16.3
2018-Feb-16 23:00N 36°19' W 016°39'0 0.0 1025.0 16.3
2018-Feb-16 22:04N 36°19' W 016°39'0 0.0 1024.8 16.3
2018-Feb-16 22:00N 36°19' W 016°39'0 0.5 1024.8 16.3
2018-Feb-16 21:00N 36°19' W 016°38'1 0.7 1024.4 16.4
2018-Feb-16 20:08N 36°19' W 016°38'0 0.0 1024.1 16.4
2018-Feb-16 20:00N 36°19' W 016°38'0 0.0 1024.1 16.4
2018-Feb-16 19:05N 36°19' W 016°38'0 0.0 1023.7 16.4
2018-Feb-16 19:00N 36°19' W 016°38'0 0.0 1023.7 16.4
2018-Feb-16 18:00N 36°19' W 016°38'1 0.7 1023.3 16.4
2018-Feb-16 17:05N 36°20' W 016°38'0 0.0 1023.1 16.5
2018-Feb-16 17:00N 36°20' W 016°38'0 0.0 1023.1 16.5
2018-Feb-16 16:04N 36°20' W 016°38'0 0.0 1022.8 16.5
2018-Feb-16 16:00N 36°20' W 016°38'0 0.0 1022.8 16.5
2018-Feb-16 15:04N 36°20' W 016°38'0 0.0 1023.0 16.5
2018-Feb-16 15:00N 36°20' W 016°38'1 0.8 1023.0 16.5
2018-Feb-16 14:05N 36°20' W 016°39'0 0.0 1023.4 16.5
2018-Feb-16 14:00N 36°20' W 016°39'0 0.0 1023.4 16.5
2018-Feb-16 13:05N 36°20' W 016°39'0 0.0 1024.2 16.4
2018-Feb-16 13:00N 36°20' W 016°39'0 0.5 1024.2 16.4
2018-Feb-16 12:05N 36°20' W 016°40'0 0.0 1024.7 16.4
2018-Feb-16 12:00N 36°20' W 016°40'0 0.0 1024.7 16.4
2018-Feb-16 11:00N 36°20' W 016°40'0 0.5 1024.5 16.4
2018-Feb-16 10:04N 36°20' W 016°40'0 0.0 1024.1 16.3
2018-Feb-16 10:00N 36°20' W 016°40'0 0.5 1024.1 16.3
2018-Feb-16 09:00N 36°20' W 016°41'0 0.5 1023.7 16.3
2018-Feb-16 08:05N 36°20' W 016°41'0 0.0 1023.4 16.3
2018-Feb-16 08:00N 36°20' W 016°41'0 0.5 1023.4 16.3
2018-Feb-16 07:05N 36°20' W 016°42'0 0.0 1023.0 16.3
2018-Feb-16 07:00N 36°20' W 016°42'1 0.6 1023.0 16.3
2018-Feb-16 06:00N 36°20' W 016°42'0 0.0 1022.8 16.4
2018-Feb-16 05:04N 36°20' W 016°42'0 0.0 1023.0 16.4
2018-Feb-16 05:00N 36°20' W 016°42'0 0.5 1023.0 16.4
2018-Feb-16 04:06N 36°20' W 016°43'0 0.0 1023.2 16.4
2018-Feb-16 04:00N 36°20' W 016°43'1 0.7 1023.2 16.4
2018-Feb-16 03:07N 36°19' W 016°43'0 0.0 1023.2 16.4
2018-Feb-16 03:00N 36°19' W 016°43'0 0.0 1023.2 16.4
2018-Feb-16 02:00N 36°19' W 016°43'1 0.6 1023.4 16.5
2018-Feb-16 01:04N 36°19' W 016°43'0 0.0 1023.6 16.5
2018-Feb-16 01:00N 36°19' W 016°43'0 0.5 1023.6 16.5
2018-Feb-16 00:05N 36°19' W 016°43'0 0.0 1023.8 16.5
2018-Feb-16 00:00N 36°19' W 016°43'0 0.0 1023.8 16.5
2018-Feb-15 23:07N 36°19' W 016°43'0 0.0 1024.1 16.6
2018-Feb-15 23:00N 36°19' W 016°43'0 0.0 1024.1 16.6
2018-Feb-15 22:00N 36°19' W 016°43'1 0.7 1024.1 16.6
2018-Feb-15 21:05N 36°19' W 016°43'0 0.0 1024.3 16.6
2018-Feb-15 21:00N 36°19' W 016°43'0 0.0 1024.3 16.6
2018-Feb-15 20:05N 36°19' W 016°43'0 0.0 1024.2 16.6
2018-Feb-15 20:00N 36°19' W 016°43'0 0.5 1024.2 16.6
2018-Feb-15 19:05N 36°19' W 016°44'0 0.0 1023.9 16.6
2018-Feb-15 19:00N 36°19' W 016°44'1 0.6 1023.9 16.7
2018-Feb-15 18:00N 36°20' W 016°44'0 0.0 1023.7 16.7
2018-Feb-15 17:06N 36°20' W 016°44'0 0.0 1023.0 16.7
2018-Feb-15 17:00N 36°20' W 016°44'1 0.8 1023.0 16.7
2018-Feb-15 16:04N 36°20' W 016°44'0 0.0 1022.7 16.7
2018-Feb-15 16:00N 36°20' W 016°44'0 0.5 1022.7 16.7
2018-Feb-15 15:04N 36°20' W 016°45'0 0.0 1023.1 16.6
2018-Feb-15 15:00N 36°20' W 016°45'0 0.5 1023.1 16.7
2018-Feb-15 14:06N 36°20' W 016°46'0 0.0 1023.6 16.6
2018-Feb-15 14:00N 36°20' W 016°46'0 0.5 1023.6 16.6
2018-Feb-15 13:05N 36°20' W 016°46'0 0.0 1024.1 16.6
2018-Feb-15 13:00N 36°20' W 016°46'0 0.5 1024.1 16.6
2018-Feb-15 12:05N 36°20' W 016°47'0 0.0 1024.6 16.6
2018-Feb-15 12:00N 36°20' W 016°47'0 0.5 1024.6 16.6
2018-Feb-15 11:04N 36°20' W 016°47'0 0.0 1024.3 16.6
2018-Feb-15 11:00N 36°20' W 016°47'1 0.8 1024.3 16.6
2018-Feb-15 10:01N 36°20' W 016°48'0 0.0 1024.3 16.6
2018-Feb-15 10:00N 36°20' W 016°48'0 0.5 1024.3 16.6
2018-Feb-15 09:04N 36°20' W 016°49'0 0.0 1023.9 16.6
2018-Feb-15 09:00N 36°20' W 016°49'0 0.0 1023.9 16.6
2018-Feb-15 08:07N 36°20' W 016°49'0 0.0 1023.5 16.6
2018-Feb-15 08:00N 36°20' W 016°49'0 0.0 1023.5 16.6
2018-Feb-15 07:04N 36°20' W 016°49'0 0.0 1022.7 16.6
2018-Feb-15 07:00N 36°20' W 016°49'1 0.6 1022.7 16.6
2018-Feb-15 06:04N 36°19' W 016°49'0 0.0 1022.2 16.6
2018-Feb-15 06:00N 36°19' W 016°49'0 0.0 1022.2 16.6
2018-Feb-15 05:05N 36°19' W 016°49'1 7.2 1021.9 16.6
2018-Feb-15 05:00N 36°20' W 016°49'1 0.7 1021.9 16.6
2018-Feb-15 04:05N 36°19' W 016°49'1 0.6 1022.1 16.6
2018-Feb-15 03:00N 36°20' W 016°49'0 0.0 1022.3 16.6
2018-Feb-15 02:04N 36°20' W 016°49'0 0.0 1022.4 16.6
2018-Feb-15 02:00N 36°20' W 016°49'0 0.5 1022.4 16.6
2018-Feb-15 01:00N 36°20' W 016°49'13 0.4 1022.8 16.6
2018-Feb-13 13:05N 36°16' W 017°04'0 0.0 1026.0 16.6
2018-Feb-13 13:00N 36°16' W 017°04'1 0.7 1026.0 16.6
2018-Feb-13 12:08N 36°16' W 017°04'0 0.0 1026.7 16.6
2018-Feb-13 12:00N 36°16' W 017°04'1 0.7 1026.7 16.6
2018-Feb-13 11:06N 36°15' W 017°04'0 0.0 1026.8 16.5
2018-Feb-13 11:00N 36°15' W 017°04'0 0.5 1026.8 16.5
2018-Feb-13 10:04N 36°15' W 017°04'0 0.0 1026.5 16.5
2018-Feb-13 10:00N 36°15' W 017°04'0 0.0 1026.5 16.5
2018-Feb-13 09:08N 36°15' W 017°04'0 0.0 1026.6 16.5
2018-Feb-13 09:00N 36°15' W 017°04'0 0.5 1026.6 16.5
2018-Feb-13 08:04N 36°15' W 017°03'0 0.0 1026.4 16.5
2018-Feb-13 08:00N 36°15' W 017°03'0 0.0 1026.4 16.5
2018-Feb-13 07:07N 36°15' W 017°03'0 0.0 1026.5 16.5
2018-Feb-13 07:00N 36°15' W 017°03'0 0.5 1026.5 16.5
2018-Feb-13 06:04N 36°15' W 017°02'0 0.0 1026.7 16.5
2018-Feb-13 06:00N 36°15' W 017°02'0 0.0 1026.7 16.5
2018-Feb-13 05:04N 36°15' W 017°02'0 0.0 1026.6 16.5
2018-Feb-13 05:00N 36°15' W 017°02'0 0.0 1026.6 16.5
2018-Feb-13 04:05N 36°15' W 017°02'0 0.0 1027.1 16.5
2018-Feb-13 04:00N 36°15' W 017°02'1 0.9 1027.1 16.5
2018-Feb-13 03:07N 36°16' W 017°02'0 0.0 1027.4 16.5
2018-Feb-13 03:00N 36°16' W 017°02'0 0.0 1027.4 16.5
2018-Feb-13 02:04N 36°16' W 017°02'0 0.0 1027.6 16.5
2018-Feb-13 02:00N 36°16' W 017°02'0 0.0 1027.6 16.5
2018-Feb-13 01:05N 36°16' W 017°02'0 0.0 1028.0 16.5
2018-Feb-13 01:00N 36°16' W 017°02'0 0.0 1028.0 16.5
2018-Feb-13 00:00N 36°16' W 017°02'0 0.0 1028.3 16.5
2018-Feb-12 23:07N 36°16' W 017°02'0 0.0 1028.4 16.5
2018-Feb-12 23:00N 36°16' W 017°02'0 0.0 1028.4 16.5
2018-Feb-12 22:04N 36°16' W 017°02'0 0.0 1028.4 16.5
2018-Feb-12 22:00N 36°16' W 017°02'0 0.0 1028.4 16.5
2018-Feb-12 21:04N 36°16' W 017°02'0 0.0 1028.2 16.5
2018-Feb-12 21:00N 36°16' W 017°02'0 0.0 1028.2 16.5
2018-Feb-12 20:06N 36°16' W 017°02'0 0.0 1028.4 16.5
2018-Feb-12 20:00N 36°16' W 017°02'0 0.5 1028.4 16.5
2018-Feb-12 19:06N 36°16' W 017°01'0 0.0 1028.4 16.5
2018-Feb-12 19:00N 36°16' W 017°01'0 0.0 1028.4 16.5
2018-Feb-12 18:00N 36°16' W 017°01'0 0.0 1028.3 16.6
2018-Feb-12 17:00N 36°16' W 017°01'1 0.8 1028.7 16.6
2018-Feb-12 16:05N 36°15' W 017°01'0 0.0 1029.0 16.6
2018-Feb-12 16:00N 36°15' W 017°01'0 0.5 1029.0 16.6
2018-Feb-12 15:05N 36°15' W 017°00'0 0.0 1029.4 16.6
2018-Feb-12 15:00N 36°15' W 017°00'1 0.5 1029.4 16.6
2018-Feb-12 13:00N 36°15' W 016°59'1 0.8 1030.5 16.6
2018-Feb-12 12:00N 36°16' W 016°58'0 0.5 1030.7 16.6
2018-Feb-12 11:00N 36°16' W 016°58'0 0.5 1030.8 16.6
2018-Feb-12 10:00N 36°16' W 016°57'1 0.6 1030.4 16.6
2018-Feb-12 09:00N 36°16' W 016°57'0 0.5 1029.7 16.6
2018-Feb-12 08:00N 36°16' W 016°56'1 0.6 1028.8 16.6
2018-Feb-12 07:00N 36°17' W 016°56'0 0.0 1028.5 16.6
2018-Feb-12 06:00N 36°17' W 016°56'0 0.5 1028.3 16.6
2018-Feb-12 05:00N 36°17' W 016°56'1 0.6 1028.2 16.6
2018-Feb-12 04:00N 36°17' W 016°56'0 0.0 1028.3 16.6
2018-Feb-12 03:00N 36°17' W 016°56'0 0.0 1028.5 16.6
2018-Feb-12 02:00N 36°17' W 016°56'0 0.0 1029.0 16.6
2018-Feb-12 01:00N 36°17' W 016°56'0 0.0 1029.5 16.6
2018-Feb-12 00:00N 36°17' W 016°56'0 0.0 1029.8 16.6
2018-Feb-11 23:00N 36°17' W 016°56'1 0.6 1030.1 16.6
2018-Feb-11 22:00N 36°17' W 016°56'0 0.0 1030.1 16.6
2018-Feb-11 21:00N 36°17' W 016°56'0 0.0 1029.7 16.6
2018-Feb-11 20:00N 36°17' W 016°56'0 0.0 1029.7 16.6
2018-Feb-11 19:00N 36°17' W 016°56'0 0.5 1029.5 16.6
2018-Feb-11 18:00N 36°17' W 016°55'1 0.8 1029.3 16.7
2018-Feb-11 17:00N 36°17' W 016°55'0 0.0 1029.2 16.7
2018-Feb-11 16:00N 36°17' W 016°55'0 0.0 1029.5 16.7
2018-Feb-11 15:00N 36°17' W 016°55'1 0.8 1030.2 16.7
2018-Feb-11 14:00N 36°18' W 016°54'0 0.0 1030.9 16.7
2018-Feb-11 13:00N 36°18' W 016°54'0 0.0 1031.9 16.6
2018-Feb-11 12:00N 36°18' W 016°54'1 0.6 1032.5 16.6
2018-Feb-11 11:00N 36°19' W 016°54'0 0.0 1032.9 16.6
2018-Feb-11 10:00N 36°19' W 016°54'1 0.6 1032.7 16.6
2018-Feb-11 09:00N 36°19' W 016°54'0 0.0 1032.3 16.6
2018-Feb-11 08:00N 36°19' W 016°54'1 0.8 1032.0 16.6
2018-Feb-11 07:00N 36°20' W 016°55'0 0.0 1031.5 16.6
2018-Feb-11 06:00N 36°20' W 016°55'0 0.0 1031.4 16.6
2018-Feb-11 05:00N 36°20' W 016°55'0 0.5 1031.3 16.6
2018-Feb-11 04:00N 36°20' W 016°55'1 0.6 1031.5 16.6
2018-Feb-11 03:00N 36°20' W 016°55'0 0.0 1032.1 16.6
2018-Feb-11 02:00N 36°20' W 016°55'0 0.0 1032.5 16.6
2018-Feb-11 01:00N 36°20' W 016°55'1 0.6 1032.9 16.6
2018-Feb-11 00:00N 36°21' W 016°55'0 0.0 1033.1 16.6
2018-Feb-10 23:00N 36°21' W 016°55'0 0.5 1033.6 16.7
2018-Feb-10 22:00N 36°21' W 016°56'0 0.0 1033.6 16.7
2018-Feb-10 21:00N 36°21' W 016°56'0 0.0 1033.4 16.7
2018-Feb-10 20:00N 36°21' W 016°56'1 0.6 1033.3 16.7
2018-Feb-10 19:00N 36°22' W 016°56'0 0.0 1032.9 16.7
2018-Feb-10 18:00N 36°22' W 016°56'0 0.5 1032.8 16.7
2018-Feb-10 17:00N 36°22' W 016°56'1 0.6 1032.6 16.7
2018-Feb-10 16:00N 36°22' W 016°56'0 0.0 1032.7 16.7
2018-Feb-10 15:00N 36°22' W 016°56'   1033.0 16.7
Track history (hours):
 
Tides and Currents Weather Stations Pressure Air Temp Water Temp Dewpoint Dewpoint Depression Visibility Wind Speed Wind Dir Waves Ship Positions

Drifting buoy 47574

Last reported at 2018-Feb-20 14:04 UTC. Time now 2018-Feb-21 09:42 UTC.
Position N 36°07' W 017°15'.

Barometer 1023.1 mb
Water temperature 16.0 ° C

Date/timePositionNaut miles runAvg speedWind from/ knotsBaromVisibWave heightAir tempDewpointWater temp
2018-Feb-20 14:04N 36°07' W 017°15'0 0.0 1023.1 16.0
2018-Feb-20 14:00N 36°07' W 017°15'0 0.6 1023.1 16.0
2018-Feb-20 13:08N 36°07' W 017°14'0 0.0 1023.8 16.0
2018-Feb-20 13:00N 36°07' W 017°14'0 0.0 1023.8 16.0
2018-Feb-20 12:05N 36°07' W 017°14'0 0.0 1024.0 16.0
2018-Feb-20 12:00N 36°07' W 017°14'0 0.5 1024.0 16.0
2018-Feb-20 11:00N 36°07' W 017°14'0 0.5 1024.2 16.0
2018-Feb-20 10:04N 36°07' W 017°13'0 0.0 1024.2 16.0
2018-Feb-20 10:00N 36°07' W 017°13'0 0.0 1024.2 16.0
2018-Feb-20 09:05N 36°07' W 017°13'0 0.0 1024.4 16.0
2018-Feb-20 09:00N 36°07' W 017°13'0 0.5 1024.4 16.0
2018-Feb-20 08:05N 36°07' W 017°13'0 0.0 1023.8 16.0
2018-Feb-20 07:05N 36°07' W 017°13'0 5.8 1023.6 16.0
2018-Feb-20 07:00N 36°07' W 017°12'0 0.0 1023.6 16.0
2018-Feb-20 06:05N 36°07' W 017°12'0 0.0 1023.5 16.0
2018-Feb-20 06:00N 36°07' W 017°12'0 0.0 1023.5 16.0
2018-Feb-20 05:04N 36°07' W 017°12'0 0.0 1023.4 16.0
2018-Feb-20 05:00N 36°07' W 017°12'0 0.5 1023.4 16.0
2018-Feb-20 04:02N 36°07' W 017°11'0 0.0 1023.6 16.0
2018-Feb-20 04:00N 36°07' W 017°11'0 0.0 1023.6 16.0
2018-Feb-20 03:04N 36°07' W 017°11'0 0.0 1023.9 16.0
2018-Feb-20 03:00N 36°07' W 017°11'0 0.5 1023.9 16.0
2018-Feb-20 02:05N 36°07' W 017°11'0 0.0 1024.1 16.0
2018-Feb-20 02:00N 36°07' W 017°11'0 0.0 1024.1 16.0
2018-Feb-20 01:04N 36°07' W 017°11'0 0.0 1024.3 16.0
2018-Feb-20 01:00N 36°07' W 017°11'1 0.8 1024.3 16.0
2018-Feb-20 00:05N 36°07' W 017°10'0 0.0 1024.4 16.0
2018-Feb-20 00:00N 36°07' W 017°10'0 0.0 1024.4 16.0
2018-Feb-19 23:05N 36°07' W 017°10'0 0.0 1024.5 16.0
2018-Feb-19 23:00N 36°07' W 017°10'0 0.5 1024.5 16.0
2018-Feb-19 22:04N 36°07' W 017°10'0 0.0 1024.5 15.9
2018-Feb-19 22:00N 36°07' W 017°10'1 0.8 1024.5 16.0
2018-Feb-19 21:04N 36°08' W 017°09'0 0.0 1024.4 16.0
2018-Feb-19 21:00N 36°08' W 017°09'0 0.0 1024.4 16.0
2018-Feb-19 20:04N 36°08' W 017°09'0 0.0 1024.2 16.0
2018-Feb-19 20:00N 36°08' W 017°09'0 0.5 1024.2 16.0
2018-Feb-19 19:05N 36°08' W 017°08'0 0.0 1023.9 16.0
2018-Feb-19 19:00N 36°08' W 017°08'1 0.7 1023.9 16.0
2018-Feb-19 18:05N 36°08' W 017°08'0 0.0 1023.7 16.1
2018-Feb-19 18:00N 36°08' W 017°08'0 0.0 1023.7 16.1
2018-Feb-19 17:05N 36°08' W 017°08'0 0.0 1023.4 16.1
2018-Feb-19 17:00N 36°08' W 017°08'0 0.5 1023.4 16.1
2018-Feb-19 16:04N 36°08' W 017°08'0 0.0 1023.2 16.1
2018-Feb-19 16:00N 36°08' W 017°08'0 0.0 1023.2 16.1
2018-Feb-19 15:05N 36°08' W 017°08'0 0.0 1023.5 16.0
2018-Feb-19 15:00N 36°08' W 017°08'0 0.0 1023.5 16.0
2018-Feb-19 14:04N 36°08' W 017°08'0 0.0 1023.8 16.0
2018-Feb-19 14:00N 36°08' W 017°08'0 0.5 1023.8 16.0
2018-Feb-19 13:05N 36°08' W 017°07'0 0.0 1024.6 16.0
2018-Feb-19 13:00N 36°08' W 017°07'0 0.0 1024.6 16.0
2018-Feb-19 12:05N 36°08' W 017°07'0 0.0 1024.7 16.0
2018-Feb-19 12:00N 36°08' W 017°07'0 0.5 1024.7 16.0
2018-Feb-19 11:05N 36°08' W 017°07'0 0.0 1024.8 16.0
2018-Feb-19 11:00N 36°08' W 017°07'0 0.5 1024.8 16.0
2018-Feb-19 10:05N 36°08' W 017°06'0 0.0 1024.4 16.0
2018-Feb-19 10:00N 36°08' W 017°06'0 0.5 1024.4 16.0
2018-Feb-19 09:07N 36°08' W 017°05'0 0.0 1024.1 16.0
2018-Feb-19 09:00N 36°08' W 017°05'0 0.5 1024.1 16.0
2018-Feb-19 08:01N 36°08' W 017°05'0 0.0 1023.6 16.0
2018-Feb-19 08:00N 36°08' W 017°05'0 0.5 1023.6 16.0
2018-Feb-19 07:05N 36°08' W 017°04'0 0.0 1023.5 16.0
2018-Feb-19 07:00N 36°08' W 017°04'1 0.6 1023.5 16.0
2018-Feb-19 06:04N 36°09' W 017°04'0 0.0 1023.4 16.0
2018-Feb-19 06:00N 36°09' W 017°04'0 0.5 1023.4 16.0
2018-Feb-19 05:04N 36°09' W 017°04'0 0.0 1023.3 16.0
2018-Feb-19 05:00N 36°09' W 017°04'1 0.8 1023.3 16.0
2018-Feb-19 04:00N 36°10' W 017°03'0 0.0 1023.3 16.0
2018-Feb-19 03:08N 36°10' W 017°03'0 0.0 1023.4 16.0
2018-Feb-19 03:00N 36°10' W 017°03'1 0.7 1023.4 16.0
2018-Feb-19 02:05N 36°10' W 017°03'0 0.0 1023.5 16.0
2018-Feb-19 02:00N 36°10' W 017°03'0 0.0 1023.5 16.0
2018-Feb-19 01:05N 36°10' W 017°03'0 0.0 1023.6 16.0
2018-Feb-19 01:00N 36°10' W 017°03'0 0.0 1023.6 16.0
2018-Feb-19 00:04N 36°10' W 017°03'0 0.0 1023.9 16.0
2018-Feb-19 00:00N 36°10' W 017°03'1 0.9 1023.9 16.0
2018-Feb-18 23:07N 36°11' W 017°02'0 0.0 1024.4 16.0
2018-Feb-18 23:00N 36°11' W 017°02'0 0.5 1024.4 16.0
2018-Feb-18 22:05N 36°11' W 017°02'0 5.8 1024.7 16.0
2018-Feb-18 22:00N 36°11' W 017°02'0 0.5 1024.7 16.0
2018-Feb-18 21:04N 36°11' W 017°02'0 0.5 1024.7 16.0
2018-Feb-18 20:05N 36°11' W 017°01'0 0.0 1024.7 16.0
2018-Feb-18 20:00N 36°11' W 017°01'0 0.5 1024.7 16.0
2018-Feb-18 19:00N 36°11' W 017°01'1 1.0 1024.4 16.0
2018-Feb-18 18:04N 36°11' W 016°59'0 0.0 1024.4 16.1
2018-Feb-18 18:00N 36°11' W 016°59'0 0.5 1024.4 16.1
2018-Feb-18 17:06N 36°11' W 016°59'0 0.0 1024.5 16.1
2018-Feb-18 17:00N 36°11' W 016°59'0 0.5 1024.5 16.1
2018-Feb-18 16:05N 36°11' W 016°58'0 0.0 1024.6 16.1
2018-Feb-18 16:00N 36°11' W 016°58'0 0.5 1024.6 16.1
2018-Feb-18 15:04N 36°11' W 016°58'0 0.0 1024.9 16.1
2018-Feb-18 15:00N 36°11' W 016°58'0 0.5 1024.9 16.1
2018-Feb-18 14:05N 36°11' W 016°57'0 0.0 1025.3 16.1
2018-Feb-18 14:00N 36°11' W 016°57'0 0.5 1025.3 16.1
2018-Feb-18 13:05N 36°11' W 016°56'0 0.0 1026.0 16.1
2018-Feb-18 13:00N 36°11' W 016°56'0 0.5 1026.0 16.1
2018-Feb-18 12:05N 36°11' W 016°56'0 0.0 1026.3 16.1
2018-Feb-18 12:00N 36°11' W 016°56'0 0.5 1026.3 16.1
2018-Feb-18 11:04N 36°11' W 016°55'0 0.0 1026.3 16.1
2018-Feb-18 11:00N 36°11' W 016°55'0 0.5 1026.3 16.1
2018-Feb-18 10:00N 36°11' W 016°55'1 1.0 1026.4 16.1
2018-Feb-18 09:04N 36°11' W 016°53'0 0.0 1026.5 16.1
2018-Feb-18 09:00N 36°11' W 016°53'0 0.5 1026.5 16.1
2018-Feb-18 08:05N 36°11' W 016°53'0 0.0 1026.1 16.1
2018-Feb-18 08:00N 36°11' W 016°53'1 0.8 1026.1 16.1
2018-Feb-18 07:04N 36°11' W 016°52'0 0.0 1025.8 16.1
2018-Feb-18 07:00N 36°11' W 016°52'0 0.5 1025.8 16.1
2018-Feb-18 06:05N 36°11' W 016°52'0 0.0 1025.8 16.1
2018-Feb-18 06:00N 36°11' W 016°52'1 0.8 1025.8 16.2
2018-Feb-18 05:05N 36°12' W 016°51'0 0.0 1025.9 16.2
2018-Feb-18 05:00N 36°12' W 016°51'1 0.9 1025.9 16.2
2018-Feb-18 04:06N 36°13' W 016°50'0 0.0 1026.1 16.2
2018-Feb-18 04:00N 36°13' W 016°50'0 0.0 1026.1 16.2
2018-Feb-18 03:05N 36°13' W 016°50'0 0.0 1026.8 16.2
2018-Feb-18 03:00N 36°13' W 016°50'1 0.8 1026.8 16.2
2018-Feb-18 02:04N 36°13' W 016°50'0 0.0 1027.1 16.2
2018-Feb-18 02:00N 36°13' W 016°50'0 0.0 1027.1 16.2
2018-Feb-18 01:04N 36°13' W 016°50'0 0.0 1027.6 16.2
2018-Feb-18 01:00N 36°13' W 016°50'0 0.0 1027.6 16.2
2018-Feb-18 00:04N 36°13' W 016°50'0 0.0 1027.8 16.2
2018-Feb-18 00:00N 36°13' W 016°50'1 0.8 1027.8 16.2
2018-Feb-17 23:05N 36°14' W 016°49'0 0.0 1028.1 16.2
2018-Feb-17 23:00N 36°14' W 016°49'0 0.0 1028.1 16.2
2018-Feb-17 22:04N 36°14' W 016°49'0 0.0 1028.1 16.2
2018-Feb-17 22:00N 36°14' W 016°49'0 0.5 1028.1 16.2
2018-Feb-17 21:04N 36°14' W 016°49'0 0.0 1028.1 16.3
2018-Feb-17 21:00N 36°14' W 016°49'1 0.8 1028.1 16.3
2018-Feb-17 20:04N 36°14' W 016°48'0 0.0 1027.7 16.3
2018-Feb-17 20:00N 36°14' W 016°48'0 0.5 1027.7 16.3
2018-Feb-17 19:00N 36°14' W 016°47'0 0.0 1027.3 16.3
2018-Feb-17 18:09N 36°14' W 016°47'0 0.4 1027.2 16.3
2018-Feb-17 17:00N 36°14' W 016°47'1 1.1 1027.1 16.3
2018-Feb-17 16:05N 36°14' W 016°46'0 0.0 1026.9 16.3
2018-Feb-17 16:00N 36°14' W 016°46'0 0.6 1026.9 16.3
2018-Feb-17 15:08N 36°14' W 016°45'0 0.0 1026.9 16.3
2018-Feb-17 15:00N 36°14' W 016°45'0 0.5 1026.9 16.3
2018-Feb-17 14:04N 36°14' W 016°44'0 0.0 1027.3 16.3
2018-Feb-17 14:00N 36°14' W 016°44'1 0.8 1027.3 16.3
2018-Feb-17 13:05N 36°15' W 016°44'0 0.0 1027.7 16.3
2018-Feb-17 13:00N 36°15' W 016°44'0 0.5 1027.7 16.3
2018-Feb-17 12:00N 36°15' W 016°43'1 0.8 1028.0 16.3
2018-Feb-17 11:05N 36°16' W 016°43'0 0.0 1028.0 16.3
2018-Feb-17 11:00N 36°16' W 016°43'1 0.8 1028.0 16.3
2018-Feb-17 10:05N 36°16' W 016°42'0 0.0 1027.7 16.2
2018-Feb-17 10:00N 36°16' W 016°42'1 0.8 1027.7 16.3
2018-Feb-17 09:00N 36°17' W 016°41'1 0.6 1027.2 16.2
2018-Feb-17 08:04N 36°17' W 016°41'0 0.0 1026.5 16.2
2018-Feb-17 08:00N 36°17' W 016°41'0 0.5 1026.5 16.2
2018-Feb-17 07:06N 36°17' W 016°41'0 0.0 1026.2 16.2
2018-Feb-17 07:00N 36°17' W 016°41'1 0.7 1026.2 16.2
2018-Feb-17 06:05N 36°18' W 016°41'0 0.0 1025.8 16.1
2018-Feb-17 06:00N 36°18' W 016°41'0 0.0 1025.8 16.2
2018-Feb-17 05:04N 36°18' W 016°41'0 0.0 1025.7 16.2
2018-Feb-17 05:00N 36°18' W 016°41'1 0.8 1025.7 16.2
2018-Feb-17 04:00N 36°19' W 016°40'0 0.0 1025.8 16.2
2018-Feb-17 03:04N 36°19' W 016°40'0 0.0 1025.7 16.2
2018-Feb-17 03:00N 36°19' W 016°40'0 0.5 1025.7 16.2
2018-Feb-17 02:04N 36°19' W 016°40'0 0.0 1025.6 16.2
2018-Feb-17 02:00N 36°19' W 016°40'0 0.0 1025.6 16.2
2018-Feb-17 01:04N 36°19' W 016°40'0 0.0 1025.5 16.3
2018-Feb-17 01:00N 36°19' W 016°40'0 0.5 1025.5 16.3
2018-Feb-17 00:06N 36°19' W 016°39'1 6.0 1025.1 16.3
2018-Feb-17 00:00N 36°19' W 016°39'1 0.7 1025.1 16.3
2018-Feb-16 23:05N 36°19' W 016°39'0 0.0 1025.0 16.3
2018-Feb-16 23:00N 36°19' W 016°39'0 0.0 1025.0 16.3
2018-Feb-16 22:04N 36°19' W 016°39'0 0.0 1024.8 16.3
2018-Feb-16 22:00N 36°19' W 016°39'0 0.5 1024.8 16.3
2018-Feb-16 21:00N 36°19' W 016°38'1 0.7 1024.4 16.4
2018-Feb-16 20:08N 36°19' W 016°38'0 0.0 1024.1 16.4
2018-Feb-16 20:00N 36°19' W 016°38'0 0.0 1024.1 16.4
2018-Feb-16 19:05N 36°19' W 016°38'0 0.0 1023.7 16.4
2018-Feb-16 19:00N 36°19' W 016°38'0 0.0 1023.7 16.4
2018-Feb-16 18:00N 36°19' W 016°38'1 0.7 1023.3 16.4
2018-Feb-16 17:05N 36°20' W 016°38'0 0.0 1023.1 16.5
2018-Feb-16 17:00N 36°20' W 016°38'0 0.0 1023.1 16.5
2018-Feb-16 16:04N 36°20' W 016°38'0 0.0 1022.8 16.5
2018-Feb-16 16:00N 36°20' W 016°38'0 0.0 1022.8 16.5
2018-Feb-16 15:04N 36°20' W 016°38'0 0.0 1023.0 16.5
2018-Feb-16 15:00N 36°20' W 016°38'1 0.8 1023.0 16.5
2018-Feb-16 14:05N 36°20' W 016°39'0 0.0 1023.4 16.5
2018-Feb-16 14:00N 36°20' W 016°39'0 0.0 1023.4 16.5
2018-Feb-16 13:05N 36°20' W 016°39'0 0.0 1024.2 16.4
2018-Feb-16 13:00N 36°20' W 016°39'0 0.5 1024.2 16.4
2018-Feb-16 12:05N 36°20' W 016°40'0 0.0 1024.7 16.4
2018-Feb-16 12:00N 36°20' W 016°40'0 0.0 1024.7 16.4
2018-Feb-16 11:00N 36°20' W 016°40'0 0.5 1024.5 16.4
2018-Feb-16 10:04N 36°20' W 016°40'0 0.0 1024.1 16.3
2018-Feb-16 10:00N 36°20' W 016°40'0 0.5 1024.1 16.3
2018-Feb-16 09:00N 36°20' W 016°41'0 0.5 1023.7 16.3
2018-Feb-16 08:05N 36°20' W 016°41'0 0.0 1023.4 16.3
2018-Feb-16 08:00N 36°20' W 016°41'0 0.5 1023.4 16.3
2018-Feb-16 07:05N 36°20' W 016°42'0 0.0 1023.0 16.3
2018-Feb-16 07:00N 36°20' W 016°42'1 0.6 1023.0 16.3
2018-Feb-16 06:00N 36°20' W 016°42'0 0.0 1022.8 16.4
2018-Feb-16 05:04N 36°20' W 016°42'0 0.0 1023.0 16.4
2018-Feb-16 05:00N 36°20' W 016°42'0 0.5 1023.0 16.4
2018-Feb-16 04:06N 36°20' W 016°43'0 0.0 1023.2 16.4
2018-Feb-16 04:00N 36°20' W 016°43'1 0.7 1023.2 16.4
2018-Feb-16 03:07N 36°19' W 016°43'0 0.0 1023.2 16.4
2018-Feb-16 03:00N 36°19' W 016°43'0 0.0 1023.2 16.4
2018-Feb-16 02:00N 36°19' W 016°43'1 0.6 1023.4 16.5
2018-Feb-16 01:04N 36°19' W 016°43'0 0.0 1023.6 16.5
2018-Feb-16 01:00N 36°19' W 016°43'0 0.5 1023.6 16.5
2018-Feb-16 00:05N 36°19' W 016°43'0 0.0 1023.8 16.5
2018-Feb-16 00:00N 36°19' W 016°43'0 0.0 1023.8 16.5
2018-Feb-15 23:07N 36°19' W 016°43'0 0.0 1024.1 16.6
2018-Feb-15 23:00N 36°19' W 016°43'0 0.0 1024.1 16.6
2018-Feb-15 22:00N 36°19' W 016°43'1 0.7 1024.1 16.6
2018-Feb-15 21:05N 36°19' W 016°43'0 0.0 1024.3 16.6
2018-Feb-15 21:00N 36°19' W 016°43'0 0.0 1024.3 16.6
2018-Feb-15 20:05N 36°19' W 016°43'0 0.0 1024.2 16.6
2018-Feb-15 20:00N 36°19' W 016°43'0 0.5 1024.2 16.6
2018-Feb-15 19:05N 36°19' W 016°44'0 0.0 1023.9 16.6
2018-Feb-15 19:00N 36°19' W 016°44'1 0.6 1023.9 16.7
2018-Feb-15 18:00N 36°20' W 016°44'0 0.0 1023.7 16.7
2018-Feb-15 17:06N 36°20' W 016°44'0 0.0 1023.0 16.7
2018-Feb-15 17:00N 36°20' W 016°44'1 0.8 1023.0 16.7
2018-Feb-15 16:04N 36°20' W 016°44'0 0.0 1022.7 16.7
2018-Feb-15 16:00N 36°20' W 016°44'0 0.5 1022.7 16.7
2018-Feb-15 15:04N 36°20' W 016°45'0 0.0 1023.1 16.6
2018-Feb-15 15:00N 36°20' W 016°45'0 0.5 1023.1 16.7
2018-Feb-15 14:06N 36°20' W 016°46'0 0.0 1023.6 16.6
2018-Feb-15 14:00N 36°20' W 016°46'0 0.5 1023.6 16.6
2018-Feb-15 13:05N 36°20' W 016°46'0 0.0 1024.1 16.6
2018-Feb-15 13:00N 36°20' W 016°46'0 0.5 1024.1 16.6
2018-Feb-15 12:05N 36°20' W 016°47'0 0.0 1024.6 16.6
2018-Feb-15 12:00N 36°20' W 016°47'0 0.5 1024.6 16.6
2018-Feb-15 11:04N 36°20' W 016°47'0 0.0 1024.3 16.6
2018-Feb-15 11:00N 36°20' W 016°47'1 0.8 1024.3 16.6
2018-Feb-15 10:01N 36°20' W 016°48'0 0.0 1024.3 16.6
2018-Feb-15 10:00N 36°20' W 016°48'0 0.5 1024.3 16.6
2018-Feb-15 09:04N 36°20' W 016°49'0 0.0 1023.9 16.6
2018-Feb-15 09:00N 36°20' W 016°49'0 0.0 1023.9 16.6
2018-Feb-15 08:07N 36°20' W 016°49'0 0.0 1023.5 16.6
2018-Feb-15 08:00N 36°20' W 016°49'0 0.0 1023.5 16.6
2018-Feb-15 07:04N 36°20' W 016°49'0 0.0 1022.7 16.6
2018-Feb-15 07:00N 36°20' W 016°49'1 0.6 1022.7 16.6
2018-Feb-15 06:04N 36°19' W 016°49'0 0.0 1022.2 16.6
2018-Feb-15 06:00N 36°19' W 016°49'0 0.0 1022.2 16.6
2018-Feb-15 05:05N 36°19' W 016°49'1 7.2 1021.9 16.6
2018-Feb-15 05:00N 36°20' W 016°49'1 0.7 1021.9 16.6
2018-Feb-15 04:05N 36°19' W 016°49'1 0.6 1022.1 16.6
2018-Feb-15 03:00N 36°20' W 016°49'0 0.0 1022.3 16.6
2018-Feb-15 02:04N 36°20' W 016°49'0 0.0 1022.4 16.6
2018-Feb-15 02:00N 36°20' W 016°49'0 0.5 1022.4 16.6
2018-Feb-15 01:00N 36°20' W 016°49'13 0.4 1022.8 16.6
2018-Feb-13 13:05N 36°16' W 017°04'0 0.0 1026.0 16.6
2018-Feb-13 13:00N 36°16' W 017°04'1 0.7 1026.0 16.6
2018-Feb-13 12:08N 36°16' W 017°04'0 0.0 1026.7 16.6
2018-Feb-13 12:00N 36°16' W 017°04'1 0.7 1026.7 16.6
2018-Feb-13 11:06N 36°15' W 017°04'0 0.0 1026.8 16.5
2018-Feb-13 11:00N 36°15' W 017°04'0 0.5 1026.8 16.5
2018-Feb-13 10:04N 36°15' W 017°04'0 0.0 1026.5 16.5
2018-Feb-13 10:00N 36°15' W 017°04'0 0.0 1026.5 16.5
2018-Feb-13 09:08N 36°15' W 017°04'0 0.0 1026.6 16.5
2018-Feb-13 09:00N 36°15' W 017°04'0 0.5 1026.6 16.5
2018-Feb-13 08:04N 36°15' W 017°03'0 0.0 1026.4 16.5
2018-Feb-13 08:00N 36°15' W 017°03'0 0.0 1026.4 16.5
2018-Feb-13 07:07N 36°15' W 017°03'0 0.0 1026.5 16.5
2018-Feb-13 07:00N 36°15' W 017°03'0 0.5 1026.5 16.5
2018-Feb-13 06:04N 36°15' W 017°02'0 0.0 1026.7 16.5
2018-Feb-13 06:00N 36°15' W 017°02'0 0.0 1026.7 16.5
2018-Feb-13 05:04N 36°15' W 017°02'0 0.0 1026.6 16.5
2018-Feb-13 05:00N 36°15' W 017°02'0 0.0 1026.6 16.5
2018-Feb-13 04:05N 36°15' W 017°02'0 0.0 1027.1 16.5
2018-Feb-13 04:00N 36°15' W 017°02'1 0.9 1027.1 16.5
2018-Feb-13 03:07N 36°16' W 017°02'0 0.0 1027.4 16.5
2018-Feb-13 03:00N 36°16' W 017°02'0 0.0 1027.4 16.5
2018-Feb-13 02:04N 36°16' W 017°02'0 0.0 1027.6 16.5
2018-Feb-13 02:00N 36°16' W 017°02'0 0.0 1027.6 16.5
2018-Feb-13 01:05N 36°16' W 017°02'0 0.0 1028.0 16.5
2018-Feb-13 01:00N 36°16' W 017°02'0 0.0 1028.0 16.5
2018-Feb-13 00:00N 36°16' W 017°02'0 0.0 1028.3 16.5
2018-Feb-12 23:07N 36°16' W 017°02'0 0.0 1028.4 16.5
2018-Feb-12 23:00N 36°16' W 017°02'0 0.0 1028.4 16.5
2018-Feb-12 22:04N 36°16' W 017°02'0 0.0 1028.4 16.5
2018-Feb-12 22:00N 36°16' W 017°02'0 0.0 1028.4 16.5
2018-Feb-12 21:04N 36°16' W 017°02'0 0.0 1028.2 16.5
2018-Feb-12 21:00N 36°16' W 017°02'0 0.0 1028.2 16.5
2018-Feb-12 20:06N 36°16' W 017°02'0 0.0 1028.4 16.5
2018-Feb-12 20:00N 36°16' W 017°02'0 0.5 1028.4 16.5
2018-Feb-12 19:06N 36°16' W 017°01'0 0.0 1028.4 16.5
2018-Feb-12 19:00N 36°16' W 017°01'0 0.0 1028.4 16.5
2018-Feb-12 18:00N 36°16' W 017°01'0 0.0 1028.3 16.6
2018-Feb-12 17:00N 36°16' W 017°01'1 0.8 1028.7 16.6
2018-Feb-12 16:05N 36°15' W 017°01'0 0.0 1029.0 16.6
2018-Feb-12 16:00N 36°15' W 017°01'0 0.5 1029.0 16.6
2018-Feb-12 15:05N 36°15' W 017°00'0 0.0 1029.4 16.6
2018-Feb-12 15:00N 36°15' W 017°00'1 0.5 1029.4 16.6
2018-Feb-12 13:00N 36°15' W 016°59'1 0.8 1030.5 16.6
2018-Feb-12 12:00N 36°16' W 016°58'0 0.5 1030.7 16.6
2018-Feb-12 11:00N 36°16' W 016°58'0 0.5 1030.8 16.6
2018-Feb-12 10:00N 36°16' W 016°57'1 0.6 1030.4 16.6
2018-Feb-12 09:00N 36°16' W 016°57'0 0.5 1029.7 16.6
2018-Feb-12 08:00N 36°16' W 016°56'1 0.6 1028.8 16.6
2018-Feb-12 07:00N 36°17' W 016°56'0 0.0 1028.5 16.6
2018-Feb-12 06:00N 36°17' W 016°56'0 0.5 1028.3 16.6
2018-Feb-12 05:00N 36°17' W 016°56'1 0.6 1028.2 16.6
2018-Feb-12 04:00N 36°17' W 016°56'0 0.0 1028.3 16.6
2018-Feb-12 03:00N 36°17' W 016°56'0 0.0 1028.5 16.6
2018-Feb-12 02:00N 36°17' W 016°56'0 0.0 1029.0 16.6
2018-Feb-12 01:00N 36°17' W 016°56'0 0.0 1029.5 16.6
2018-Feb-12 00:00N 36°17' W 016°56'0 0.0 1029.8 16.6
2018-Feb-11 23:00N 36°17' W 016°56'1 0.6 1030.1 16.6
2018-Feb-11 22:00N 36°17' W 016°56'0 0.0 1030.1 16.6
2018-Feb-11 21:00N 36°17' W 016°56'0 0.0 1029.7 16.6
2018-Feb-11 20:00N 36°17' W 016°56'0 0.0 1029.7 16.6
2018-Feb-11 19:00N 36°17' W 016°56'0 0.5 1029.5 16.6
2018-Feb-11 18:00N 36°17' W 016°55'1 0.8 1029.3 16.7
2018-Feb-11 17:00N 36°17' W 016°55'0 0.0 1029.2 16.7
2018-Feb-11 16:00N 36°17' W 016°55'0 0.0 1029.5 16.7
2018-Feb-11 15:00N 36°17' W 016°55'1 0.8 1030.2 16.7
2018-Feb-11 14:00N 36°18' W 016°54'0 0.0 1030.9 16.7
2018-Feb-11 13:00N 36°18' W 016°54'0 0.0 1031.9 16.6
2018-Feb-11 12:00N 36°18' W 016°54'1 0.6 1032.5 16.6
2018-Feb-11 11:00N 36°19' W 016°54'0 0.0 1032.9 16.6
2018-Feb-11 10:00N 36°19' W 016°54'1 0.6 1032.7 16.6
2018-Feb-11 09:00N 36°19' W 016°54'0 0.0 1032.3 16.6
2018-Feb-11 08:00N 36°19' W 016°54'1 0.8 1032.0 16.6
2018-Feb-11 07:00N 36°20' W 016°55'0 0.0 1031.5 16.6
2018-Feb-11 06:00N 36°20' W 016°55'0 0.0 1031.4 16.6
2018-Feb-11 05:00N 36°20' W 016°55'0 0.5 1031.3 16.6
2018-Feb-11 04:00N 36°20' W 016°55'1 0.6 1031.5 16.6
2018-Feb-11 03:00N 36°20' W 016°55'0 0.0 1032.1 16.6
2018-Feb-11 02:00N 36°20' W 016°55'0 0.0 1032.5 16.6
2018-Feb-11 01:00N 36°20' W 016°55'1 0.6 1032.9 16.6
2018-Feb-11 00:00N 36°21' W 016°55'0 0.0 1033.1 16.6
2018-Feb-10 23:00N 36°21' W 016°55'0 0.5 1033.6 16.7
2018-Feb-10 22:00N 36°21' W 016°56'0 0.0 1033.6 16.7
2018-Feb-10 21:00N 36°21' W 016°56'0 0.0 1033.4 16.7
2018-Feb-10 20:00N 36°21' W 016°56'1 0.6 1033.3 16.7
2018-Feb-10 19:00N 36°22' W 016°56'0 0.0 1032.9 16.7
2018-Feb-10 18:00N 36°22' W 016°56'0 0.5 1032.8 16.7
2018-Feb-10 17:00N 36°22' W 016°56'1 0.6 1032.6 16.7
2018-Feb-10 16:00N 36°22' W 016°56'0 0.0 1032.7 16.7
2018-Feb-10 15:00N 36°22' W 016°56'   1033.0 16.7

Dump ship's entire track history